Terminal Aerodrome Forecast
Issued by NWS Cleveland, OH

Home | Current Version | Previous Version | Graphics & Text | Print | Product List | Glossary On
Versions: 1 2 3 4 5 6 7 8 9 10 11 12 13 14 15 16 17 18 19 20 21 22
000
FTUS41 KCLE 181737
TAFYNG
TAF
KYNG 181737Z 1818/1918 27010KT 4SM BR OVC008
      TEMPO 1818/1820 2SM -DZ OVC005
     FM182200 25006KT P6SM OVC010
     FM190300 24005KT 5SM BR OVC007
     FM190800 22005KT 2SM BR OVC005
     FM191400 22005KT 5SM BR OVC009=

USA.gov is the U.S. government's official web portal to all federal, state and local government web resources and services.